sensor_id;sensor_type;location;lat;lon;timestamp;P1;durP1;ratioP1;P2;durP2;ratioP2
1358;SDS011;673;48.098;14.422;2023-03-19T00:00:18;8.57;;;7.33;;
1358;SDS011;673;48.098;14.422;2023-03-19T00:02:46;14.03;;;9.27;;
1358;SDS011;673;48.098;14.422;2023-03-19T00:05:17;10.63;;;8.27;;
1358;SDS011;673;48.098;14.422;2023-03-19T00:07:44;11.20;;;7.70;;
1358;SDS011;673;48.098;14.422;2023-03-19T00:10:11;15.03;;;9.03;;
1358;SDS011;673;48.098;14.422;2023-03-19T00:12:38;14.07;;;9.30;;
1358;SDS011;673;48.098;14.422;2023-03-19T00:15:06;13.03;;;9.37;;
1358;SDS011;673;48.098;14.422;2023-03-19T00:17:38;12.83;;;9.60;;
1358;SDS011;673;48.098;14.422;2023-03-19T00:20:07;14.77;;;10.17;;
1358;SDS011;673;48.098;14.422;2023-03-19T00:22:37;11.90;;;10.27;;
1358;SDS011;673;48.098;14.422;2023-03-19T00:25:05;14.00;;;10.07;;
1358;SDS011;673;48.098;14.422;2023-03-19T00:27:34;15.23;;;9.27;;
1358;SDS011;673;48.098;14.422;2023-03-19T00:30:01;13.70;;;10.07;;
1358;SDS011;673;48.098;14.422;2023-03-19T00:32:28;10.63;;;8.93;;
1358;SDS011;673;48.098;14.422;2023-03-19T00:34:57;18.43;;;10.47;;
1358;SDS011;673;48.098;14.422;2023-03-19T00:37:24;17.00;;;11.13;;
1358;SDS011;673;48.098;14.422;2023-03-19T00:39:52;9.83;;;8.17;;
1358;SDS011;673;48.098;14.422;2023-03-19T00:42:20;12.13;;;8.40;;
1358;SDS011;673;48.098;14.422;2023-03-19T00:44:47;8.10;;;7.17;;
1358;SDS011;673;48.098;14.422;2023-03-19T00:47:14;7.70;;;6.80;;
1358;SDS011;673;48.098;14.422;2023-03-19T00:49:41;11.83;;;8.63;;
1358;SDS011;673;48.098;14.422;2023-03-19T00:52:08;12.50;;;8.40;;
1358;SDS011;673;48.098;14.422;2023-03-19T00:54:35;12.00;;;9.10;;
1358;SDS011;673;48.098;14.422;2023-03-19T00:57:03;13.43;;;10.47;;
1358;SDS011;673;48.098;14.422;2023-03-19T00:59:31;13.47;;;10.20;;
1358;SDS011;673;48.098;14.422;2023-03-19T01:01:58;14.27;;;10.80;;
1358;SDS011;673;48.098;14.422;2023-03-19T01:04:25;15.83;;;9.73;;
1358;SDS011;673;48.098;14.422;2023-03-19T01:06:52;10.80;;;8.80;;
1358;SDS011;673;48.098;14.422;2023-03-19T01:09:19;12.30;;;9.60;;
1358;SDS011;673;48.098;14.422;2023-03-19T01:11:46;11.50;;;8.47;;
1358;SDS011;673;48.098;14.422;2023-03-19T01:14:15;11.10;;;8.50;;
1358;SDS011;673;48.098;14.422;2023-03-19T01:16:42;14.97;;;8.67;;
1358;SDS011;673;48.098;14.422;2023-03-19T01:19:10;13.47;;;9.13;;
1358;SDS011;673;48.098;14.422;2023-03-19T01:21:38;10.20;;;8.00;;
1358;SDS011;673;48.098;14.422;2023-03-19T01:24:10;12.83;;;9.10;;
1358;SDS011;673;48.098;14.422;2023-03-19T01:26:37;8.57;;;7.70;;
1358;SDS011;673;48.098;14.422;2023-03-19T01:29:04;12.07;;;8.47;;
1358;SDS011;673;48.098;14.422;2023-03-19T01:31:32;10.20;;;7.97;;
1358;SDS011;673;48.098;14.422;2023-03-19T01:33:59;10.50;;;8.07;;
1358;SDS011;673;48.098;14.422;2023-03-19T01:36:26;9.33;;;7.70;;
1358;SDS011;673;48.098;14.422;2023-03-19T01:38:54;9.53;;;7.50;;
1358;SDS011;673;48.098;14.422;2023-03-19T01:41:21;11.07;;;7.70;;
1358;SDS011;673;48.098;14.422;2023-03-19T01:43:48;13.20;;;7.50;;
1358;SDS011;673;48.098;14.422;2023-03-19T01:46:16;10.63;;;7.20;;
1358;SDS011;673;48.098;14.422;2023-03-19T01:48:52;10.13;;;7.90;;
1358;SDS011;673;48.098;14.422;2023-03-19T01:51:22;8.43;;;7.50;;
1358;SDS011;673;48.098;14.422;2023-03-19T01:53:53;12.70;;;8.33;;
1358;SDS011;673;48.098;14.422;2023-03-19T01:56:23;12.93;;;7.80;;
1358;SDS011;673;48.098;14.422;2023-03-19T01:58:55;11.50;;;8.37;;
1358;SDS011;673;48.098;14.422;2023-03-19T02:01:24;9.93;;;6.53;;
1358;SDS011;673;48.098;14.422;2023-03-19T02:03:54;9.23;;;7.03;;
1358;SDS011;673;48.098;14.422;2023-03-19T02:06:21;10.70;;;7.57;;
1358;SDS011;673;48.098;14.422;2023-03-19T02:08:49;13.93;;;7.27;;
1358;SDS011;673;48.098;14.422;2023-03-19T02:11:17;21.10;;;9.07;;
1358;SDS011;673;48.098;14.422;2023-03-19T02:13:46;8.03;;;6.53;;
1358;SDS011;673;48.098;14.422;2023-03-19T02:16:13;8.67;;;6.50;;
1358;SDS011;673;48.098;14.422;2023-03-19T02:18:40;8.93;;;6.73;;
1358;SDS011;673;48.098;14.422;2023-03-19T02:21:10;13.23;;;7.93;;
1358;SDS011;673;48.098;14.422;2023-03-19T02:23:40;8.33;;;7.50;;
1358;SDS011;673;48.098;14.422;2023-03-19T02:26:14;8.60;;;7.23;;
1358;SDS011;673;48.098;14.422;2023-03-19T02:28:44;9.10;;;6.33;;
1358;SDS011;673;48.098;14.422;2023-03-19T02:31:13;9.03;;;6.40;;
1358;SDS011;673;48.098;14.422;2023-03-19T02:33:40;9.90;;;6.63;;
1358;SDS011;673;48.098;14.422;2023-03-19T02:36:09;9.33;;;6.60;;
1358;SDS011;673;48.098;14.422;2023-03-19T02:38:39;8.63;;;7.40;;
1358;SDS011;673;48.098;14.422;2023-03-19T02:41:09;10.80;;;7.73;;
1358;SDS011;673;48.098;14.422;2023-03-19T02:43:38;12.10;;;8.40;;
1358;SDS011;673;48.098;14.422;2023-03-19T02:46:06;11.80;;;8.50;;
1358;SDS011;673;48.098;14.422;2023-03-19T02:48:36;11.10;;;9.10;;
1358;SDS011;673;48.098;14.422;2023-03-19T02:51:05;9.77;;;8.80;;
1358;SDS011;673;48.098;14.422;2023-03-19T02:53:32;13.83;;;9.63;;
1358;SDS011;673;48.098;14.422;2023-03-19T02:56:00;13.40;;;9.10;;
1358;SDS011;673;48.098;14.422;2023-03-19T02:58:27;16.20;;;10.30;;
1358;SDS011;673;48.098;14.422;2023-03-19T03:00:55;15.00;;;11.27;;
1358;SDS011;673;48.098;14.422;2023-03-19T03:03:22;13.87;;;11.00;;
1358;SDS011;673;48.098;14.422;2023-03-19T03:05:49;14.57;;;11.90;;
1358;SDS011;673;48.098;14.422;2023-03-19T03:08:16;14.93;;;11.30;;
1358;SDS011;673;48.098;14.422;2023-03-19T03:10:44;16.30;;;10.53;;
1358;SDS011;673;48.098;14.422;2023-03-19T03:13:11;16.73;;;11.23;;
1358;SDS011;673;48.098;14.422;2023-03-19T03:15:39;16.77;;;11.20;;
1358;SDS011;673;48.098;14.422;2023-03-19T03:18:07;16.03;;;11.00;;
1358;SDS011;673;48.098;14.422;2023-03-19T03:20:34;10.70;;;9.07;;
1358;SDS011;673;48.098;14.422;2023-03-19T03:23:01;12.37;;;9.30;;
1358;SDS011;673;48.098;14.422;2023-03-19T03:25:28;18.90;;;11.53;;
1358;SDS011;673;48.098;14.422;2023-03-19T03:27:55;12.13;;;10.67;;
1358;SDS011;673;48.098;14.422;2023-03-19T03:30:22;13.80;;;11.17;;
1358;SDS011;673;48.098;14.422;2023-03-19T03:32:49;16.60;;;10.60;;
1358;SDS011;673;48.098;14.422;2023-03-19T03:35:18;15.90;;;10.13;;
1358;SDS011;673;48.098;14.422;2023-03-19T03:37:46;16.27;;;10.60;;
1358;SDS011;673;48.098;14.422;2023-03-19T03:40:14;16.63;;;10.33;;
1358;SDS011;673;48.098;14.422;2023-03-19T03:42:41;14.90;;;11.23;;
1358;SDS011;673;48.098;14.422;2023-03-19T03:45:09;16.67;;;12.27;;
1358;SDS011;673;48.098;14.422;2023-03-19T03:47:37;13.20;;;10.13;;
1358;SDS011;673;48.098;14.422;2023-03-19T03:50:05;15.80;;;11.20;;
1358;SDS011;673;48.098;14.422;2023-03-19T03:52:36;16.97;;;10.70;;
1358;SDS011;673;48.098;14.422;2023-03-19T03:55:03;13.97;;;10.73;;
1358;SDS011;673;48.098;14.422;2023-03-19T03:57:31;11.70;;;9.90;;
1358;SDS011;673;48.098;14.422;2023-03-19T03:59:58;14.30;;;10.23;;
1358;SDS011;673;48.098;14.422;2023-03-19T04:02:25;12.83;;;10.57;;
1358;SDS011;673;48.098;14.422;2023-03-19T04:04:52;18.57;;;10.60;;
1358;SDS011;673;48.098;14.422;2023-03-19T04:07:20;19.07;;;10.60;;
1358;SDS011;673;48.098;14.422;2023-03-19T04:09:48;16.40;;;12.07;;
1358;SDS011;673;48.098;14.422;2023-03-19T04:12:16;14.67;;;10.10;;
1358;SDS011;673;48.098;14.422;2023-03-19T04:14:43;16.37;;;11.33;;
1358;SDS011;673;48.098;14.422;2023-03-19T04:17:10;14.93;;;10.67;;
1358;SDS011;673;48.098;14.422;2023-03-19T04:19:37;14.87;;;12.00;;
1358;SDS011;673;48.098;14.422;2023-03-19T04:22:04;13.33;;;9.97;;
1358;SDS011;673;48.098;14.422;2023-03-19T04:24:32;11.83;;;9.90;;
1358;SDS011;673;48.098;14.422;2023-03-19T04:27:00;14.67;;;10.60;;
1358;SDS011;673;48.098;14.422;2023-03-19T04:29:27;12.90;;;11.23;;
1358;SDS011;673;48.098;14.422;2023-03-19T04:31:54;11.83;;;9.77;;
1358;SDS011;673;48.098;14.422;2023-03-19T04:34:21;11.67;;;9.40;;
1358;SDS011;673;48.098;14.422;2023-03-19T04:36:48;13.83;;;10.80;;
1358;SDS011;673;48.098;14.422;2023-03-19T04:39:16;10.87;;;9.73;;
1358;SDS011;673;48.098;14.422;2023-03-19T04:41:43;13.70;;;9.07;;
1358;SDS011;673;48.098;14.422;2023-03-19T04:44:12;14.40;;;9.60;;
1358;SDS011;673;48.098;14.422;2023-03-19T04:46:39;12.33;;;10.90;;
1358;SDS011;673;48.098;14.422;2023-03-19T04:49:06;12.73;;;9.77;;
1358;SDS011;673;48.098;14.422;2023-03-19T04:51:33;10.00;;;8.93;;
1358;SDS011;673;48.098;14.422;2023-03-19T04:54:00;13.80;;;10.50;;
1358;SDS011;673;48.098;14.422;2023-03-19T04:56:27;13.00;;;8.50;;
1358;SDS011;673;48.098;14.422;2023-03-19T04:58:55;14.00;;;9.67;;
1358;SDS011;673;48.098;14.422;2023-03-19T05:01:23;12.17;;;9.03;;
1358;SDS011;673;48.098;14.422;2023-03-19T05:03:51;13.63;;;11.20;;
1358;SDS011;673;48.098;14.422;2023-03-19T05:06:18;10.20;;;9.10;;
1358;SDS011;673;48.098;14.422;2023-03-19T05:08:45;10.83;;;8.63;;
1358;SDS011;673;48.098;14.422;2023-03-19T05:11:12;15.33;;;11.90;;
1358;SDS011;673;48.098;14.422;2023-03-19T05:13:40;13.50;;;10.27;;
1358;SDS011;673;48.098;14.422;2023-03-19T05:16:07;13.77;;;9.57;;
1358;SDS011;673;48.098;14.422;2023-03-19T05:18:36;11.73;;;9.80;;
1358;SDS011;673;48.098;14.422;2023-03-19T05:21:03;12.73;;;9.47;;
1358;SDS011;673;48.098;14.422;2023-03-19T05:23:30;13.40;;;9.80;;
1358;SDS011;673;48.098;14.422;2023-03-19T05:25:57;12.73;;;9.70;;
1358;SDS011;673;48.098;14.422;2023-03-19T05:28:25;12.30;;;9.00;;
1358;SDS011;673;48.098;14.422;2023-03-19T05:30:52;12.97;;;10.57;;
1358;SDS011;673;48.098;14.422;2023-03-19T05:33:19;15.50;;;10.80;;
1358;SDS011;673;48.098;14.422;2023-03-19T05:35:47;16.60;;;12.03;;
1358;SDS011;673;48.098;14.422;2023-03-19T05:38:15;13.00;;;9.50;;
1358;SDS011;673;48.098;14.422;2023-03-19T05:40:42;18.00;;;11.97;;
1358;SDS011;673;48.098;14.422;2023-03-19T05:43:09;14.13;;;9.57;;
1358;SDS011;673;48.098;14.422;2023-03-19T05:45:37;12.90;;;9.27;;
1358;SDS011;673;48.098;14.422;2023-03-19T05:48:04;13.77;;;9.93;;
1358;SDS011;673;48.098;14.422;2023-03-19T05:50:31;10.60;;;9.47;;
1358;SDS011;673;48.098;14.422;2023-03-19T05:53:00;12.93;;;9.53;;
1358;SDS011;673;48.098;14.422;2023-03-19T05:55:27;14.43;;;8.23;;
1358;SDS011;673;48.098;14.422;2023-03-19T05:57:54;11.00;;;9.17;;
1358;SDS011;673;48.098;14.422;2023-03-19T06:00:21;17.20;;;8.00;;
1358;SDS011;673;48.098;14.422;2023-03-19T06:02:48;12.67;;;10.13;;
1358;SDS011;673;48.098;14.422;2023-03-19T06:05:15;12.37;;;9.30;;
1358;SDS011;673;48.098;14.422;2023-03-19T06:07:42;12.40;;;9.93;;
1358;SDS011;673;48.098;14.422;2023-03-19T06:10:11;11.07;;;9.80;;
1358;SDS011;673;48.098;14.422;2023-03-19T06:12:38;11.57;;;9.37;;
1358;SDS011;673;48.098;14.422;2023-03-19T06:15:06;16.70;;;9.63;;
1358;SDS011;673;48.098;14.422;2023-03-19T06:17:34;12.53;;;9.57;;
1358;SDS011;673;48.098;14.422;2023-03-19T06:20:01;11.53;;;10.33;;
1358;SDS011;673;48.098;14.422;2023-03-19T06:22:29;11.87;;;10.27;;
1358;SDS011;673;48.098;14.422;2023-03-19T06:24:56;20.40;;;18.23;;
1358;SDS011;673;48.098;14.422;2023-03-19T06:27:24;30.33;;;19.80;;
1358;SDS011;673;48.098;14.422;2023-03-19T06:29:51;17.30;;;11.97;;
1358;SDS011;673;48.098;14.422;2023-03-19T06:32:18;13.70;;;11.53;;
1358;SDS011;673;48.098;14.422;2023-03-19T06:34:45;17.17;;;11.90;;
1358;SDS011;673;48.098;14.422;2023-03-19T06:37:13;22.23;;;16.10;;
1358;SDS011;673;48.098;14.422;2023-03-19T06:39:41;15.37;;;11.87;;
1358;SDS011;673;48.098;14.422;2023-03-19T06:42:13;23.60;;;18.10;;
1358;SDS011;673;48.098;14.422;2023-03-19T06:44:42;14.60;;;12.03;;
1358;SDS011;673;48.098;14.422;2023-03-19T06:47:09;12.40;;;9.63;;
1358;SDS011;673;48.098;14.422;2023-03-19T06:49:36;12.47;;;10.00;;
1358;SDS011;673;48.098;14.422;2023-03-19T06:52:03;13.73;;;9.77;;
1358;SDS011;673;48.098;14.422;2023-03-19T06:54:31;11.07;;;9.50;;
1358;SDS011;673;48.098;14.422;2023-03-19T06:56:58;11.07;;;9.97;;
1358;SDS011;673;48.098;14.422;2023-03-19T06:59:25;10.50;;;9.47;;
1358;SDS011;673;48.098;14.422;2023-03-19T07:01:53;15.73;;;11.77;;
1358;SDS011;673;48.098;14.422;2023-03-19T07:04:20;19.53;;;16.17;;
1358;SDS011;673;48.098;14.422;2023-03-19T07:06:47;15.47;;;13.37;;
1358;SDS011;673;48.098;14.422;2023-03-19T07:09:14;11.50;;;9.40;;
1358;SDS011;673;48.098;14.422;2023-03-19T07:11:41;11.23;;;8.60;;
1358;SDS011;673;48.098;14.422;2023-03-19T07:14:08;12.23;;;9.40;;
1358;SDS011;673;48.098;14.422;2023-03-19T07:16:35;10.07;;;8.67;;
1358;SDS011;673;48.098;14.422;2023-03-19T07:19:04;11.43;;;10.20;;
1358;SDS011;673;48.098;14.422;2023-03-19T07:21:31;15.83;;;9.73;;
1358;SDS011;673;48.098;14.422;2023-03-19T07:23:58;9.87;;;8.63;;
1358;SDS011;673;48.098;14.422;2023-03-19T07:26:25;11.27;;;8.67;;
1358;SDS011;673;48.098;14.422;2023-03-19T07:28:52;8.23;;;7.40;;
1358;SDS011;673;48.098;14.422;2023-03-19T07:31:19;8.87;;;7.97;;
1358;SDS011;673;48.098;14.422;2023-03-19T07:33:46;12.63;;;9.37;;
1358;SDS011;673;48.098;14.422;2023-03-19T07:36:14;13.67;;;9.10;;
1358;SDS011;673;48.098;14.422;2023-03-19T07:38:41;10.33;;;9.03;;
1358;SDS011;673;48.098;14.422;2023-03-19T07:41:08;11.87;;;9.47;;
1358;SDS011;673;48.098;14.422;2023-03-19T07:43:35;11.90;;;8.80;;
1358;SDS011;673;48.098;14.422;2023-03-19T07:46:02;9.40;;;7.43;;
1358;SDS011;673;48.098;14.422;2023-03-19T07:48:30;10.10;;;8.73;;
1358;SDS011;673;48.098;14.422;2023-03-19T07:50:57;14.03;;;9.73;;
1358;SDS011;673;48.098;14.422;2023-03-19T07:53:25;12.00;;;7.77;;
1358;SDS011;673;48.098;14.422;2023-03-19T07:55:52;11.57;;;7.83;;
1358;SDS011;673;48.098;14.422;2023-03-19T07:58:19;10.23;;;7.63;;
1358;SDS011;673;48.098;14.422;2023-03-19T08:00:46;8.43;;;7.53;;
1358;SDS011;673;48.098;14.422;2023-03-19T08:03:13;10.83;;;8.67;;
1358;SDS011;673;48.098;14.422;2023-03-19T08:05:42;10.03;;;8.70;;
1358;SDS011;673;48.098;14.422;2023-03-19T08:08:09;11.30;;;8.60;;
1358;SDS011;673;48.098;14.422;2023-03-19T08:10:37;8.70;;;7.37;;
1358;SDS011;673;48.098;14.422;2023-03-19T08:13:04;13.40;;;8.63;;
1358;SDS011;673;48.098;14.422;2023-03-19T08:15:31;15.80;;;10.33;;
1358;SDS011;673;48.098;14.422;2023-03-19T08:17:59;12.67;;;8.73;;
1358;SDS011;673;48.098;14.422;2023-03-19T08:20:27;9.47;;;8.50;;
1358;SDS011;673;48.098;14.422;2023-03-19T08:22:54;9.93;;;8.80;;
1358;SDS011;673;48.098;14.422;2023-03-19T08:25:21;11.33;;;10.13;;
1358;SDS011;673;48.098;14.422;2023-03-19T08:27:50;13.33;;;11.07;;
1358;SDS011;673;48.098;14.422;2023-03-19T08:30:17;14.80;;;8.87;;
1358;SDS011;673;48.098;14.422;2023-03-19T08:32:44;13.20;;;10.10;;
1358;SDS011;673;48.098;14.422;2023-03-19T08:35:13;13.43;;;10.30;;
1358;SDS011;673;48.098;14.422;2023-03-19T08:37:40;14.23;;;9.77;;
1358;SDS011;673;48.098;14.422;2023-03-19T08:40:07;13.30;;;9.13;;
1358;SDS011;673;48.098;14.422;2023-03-19T08:42:35;10.43;;;8.97;;
1358;SDS011;673;48.098;14.422;2023-03-19T08:45:08;12.60;;;9.10;;
1358;SDS011;673;48.098;14.422;2023-03-19T08:47:37;10.67;;;9.07;;
1358;SDS011;673;48.098;14.422;2023-03-19T08:50:05;10.40;;;9.20;;
1358;SDS011;673;48.098;14.422;2023-03-19T08:52:32;11.97;;;10.40;;
1358;SDS011;673;48.098;14.422;2023-03-19T08:54:59;10.30;;;9.20;;
1358;SDS011;673;48.098;14.422;2023-03-19T08:57:28;10.20;;;9.03;;
1358;SDS011;673;48.098;14.422;2023-03-19T08:59:57;12.57;;;10.70;;
1358;SDS011;673;48.098;14.422;2023-03-19T09:02:25;10.90;;;9.80;;
1358;SDS011;673;48.098;14.422;2023-03-19T09:04:52;13.73;;;12.17;;
1358;SDS011;673;48.098;14.422;2023-03-19T09:07:19;14.03;;;10.07;;
1358;SDS011;673;48.098;14.422;2023-03-19T09:09:46;14.23;;;11.03;;
1358;SDS011;673;48.098;14.422;2023-03-19T09:12:14;14.77;;;10.20;;
1358;SDS011;673;48.098;14.422;2023-03-19T09:14:42;11.43;;;10.30;;
1358;SDS011;673;48.098;14.422;2023-03-19T09:17:09;13.43;;;10.83;;
1358;SDS011;673;48.098;14.422;2023-03-19T09:19:38;11.90;;;10.17;;
1358;SDS011;673;48.098;14.422;2023-03-19T09:22:06;13.17;;;11.77;;
1358;SDS011;673;48.098;14.422;2023-03-19T09:24:33;13.80;;;11.53;;
1358;SDS011;673;48.098;14.422;2023-03-19T09:27:00;14.43;;;12.17;;
1358;SDS011;673;48.098;14.422;2023-03-19T09:29:27;12.13;;;10.93;;
1358;SDS011;673;48.098;14.422;2023-03-19T09:31:54;13.70;;;12.50;;
1358;SDS011;673;48.098;14.422;2023-03-19T09:34:21;13.87;;;12.37;;
1358;SDS011;673;48.098;14.422;2023-03-19T09:36:49;13.97;;;12.07;;
1358;SDS011;673;48.098;14.422;2023-03-19T09:39:16;14.20;;;12.00;;
1358;SDS011;673;48.098;14.422;2023-03-19T09:41:47;12.80;;;11.47;;
1358;SDS011;673;48.098;14.422;2023-03-19T09:44:26;12.47;;;11.13;;
1358;SDS011;673;48.098;14.422;2023-03-19T09:46:55;12.50;;;11.30;;
1358;SDS011;673;48.098;14.422;2023-03-19T09:49:28;12.40;;;10.77;;
1358;SDS011;673;48.098;14.422;2023-03-19T09:52:00;12.00;;;10.90;;
1358;SDS011;673;48.098;14.422;2023-03-19T09:54:38;11.40;;;10.30;;
1358;SDS011;673;48.098;14.422;2023-03-19T09:57:10;14.97;;;13.27;;
1358;SDS011;673;48.098;14.422;2023-03-19T09:59:38;12.90;;;11.00;;
1358;SDS011;673;48.098;14.422;2023-03-19T10:02:16;10.67;;;9.63;;
1358;SDS011;673;48.098;14.422;2023-03-19T10:05:00;12.97;;;11.30;;
1358;SDS011;673;48.098;14.422;2023-03-19T10:07:40;14.20;;;11.73;;
1358;SDS011;673;48.098;14.422;2023-03-19T10:10:19;12.20;;;11.03;;
1358;SDS011;673;48.098;14.422;2023-03-19T10:13:06;12.13;;;10.93;;
1358;SDS011;673;48.098;14.422;2023-03-19T10:15:39;12.30;;;11.10;;
1358;SDS011;673;48.098;14.422;2023-03-19T10:18:09;12.30;;;11.00;;
1358;SDS011;673;48.098;14.422;2023-03-19T10:20:43;13.10;;;11.33;;
1358;SDS011;673;48.098;14.422;2023-03-19T10:26:12;14.30;;;11.87;;
1358;SDS011;673;48.098;14.422;2023-03-19T10:28:41;12.17;;;10.87;;
1358;SDS011;673;48.098;14.422;2023-03-19T10:31:20;12.73;;;10.23;;
1358;SDS011;673;48.098;14.422;2023-03-19T10:33:57;11.10;;;9.60;;
1358;SDS011;673;48.098;14.422;2023-03-19T10:36:39;12.17;;;10.30;;
1358;SDS011;673;48.098;14.422;2023-03-19T10:39:07;11.13;;;9.80;;
1358;SDS011;673;48.098;14.422;2023-03-19T10:41:45;10.90;;;9.80;;
1358;SDS011;673;48.098;14.422;2023-03-19T10:44:20;11.10;;;10.10;;
1358;SDS011;673;48.098;14.422;2023-03-19T10:46:53;10.60;;;9.53;;
1358;SDS011;673;48.098;14.422;2023-03-19T10:49:23;10.87;;;9.77;;
1358;SDS011;673;48.098;14.422;2023-03-19T10:51:50;10.10;;;9.07;;
1358;SDS011;673;48.098;14.422;2023-03-19T10:54:20;10.90;;;9.87;;
1358;SDS011;673;48.098;14.422;2023-03-19T10:56:48;12.73;;;9.57;;
1358;SDS011;673;48.098;14.422;2023-03-19T10:59:19;12.03;;;9.60;;
1358;SDS011;673;48.098;14.422;2023-03-19T11:01:49;8.87;;;7.97;;
1358;SDS011;673;48.098;14.422;2023-03-19T11:04:22;10.97;;;9.27;;
1358;SDS011;673;48.098;14.422;2023-03-19T11:06:52;9.90;;;9.07;;
1358;SDS011;673;48.098;14.422;2023-03-19T11:09:22;10.00;;;8.73;;
1358;SDS011;673;48.098;14.422;2023-03-19T11:11:56;12.00;;;8.87;;
1358;SDS011;673;48.098;14.422;2023-03-19T11:14:32;10.50;;;9.50;;
1358;SDS011;673;48.098;14.422;2023-03-19T11:17:03;12.40;;;10.57;;
1358;SDS011;673;48.098;14.422;2023-03-19T11:19:33;9.80;;;8.90;;
1358;SDS011;673;48.098;14.422;2023-03-19T11:22:12;10.20;;;9.20;;
1358;SDS011;673;48.098;14.422;2023-03-19T11:24:48;10.20;;;9.20;;
1358;SDS011;673;48.098;14.422;2023-03-19T11:27:25;10.40;;;9.40;;
1358;SDS011;673;48.098;14.422;2023-03-19T11:29:54;10.30;;;9.20;;
1358;SDS011;673;48.098;14.422;2023-03-19T11:32:24;10.07;;;9.17;;
1358;SDS011;673;48.098;14.422;2023-03-19T11:35:12;11.40;;;10.20;;
1358;SDS011;673;48.098;14.422;2023-03-19T11:37:52;12.80;;;9.43;;
1358;SDS011;673;48.098;14.422;2023-03-19T11:40:33;11.13;;;9.90;;
1358;SDS011;673;48.098;14.422;2023-03-19T11:46:07;12.83;;;10.57;;
1358;SDS011;673;48.098;14.422;2023-03-19T11:48:44;11.83;;;10.73;;
1358;SDS011;673;48.098;14.422;2023-03-19T11:51:34;11.47;;;10.27;;
1358;SDS011;673;48.098;14.422;2023-03-19T11:54:08;11.60;;;10.40;;
1358;SDS011;673;48.098;14.422;2023-03-19T11:56:43;14.93;;;11.03;;
1358;SDS011;673;48.098;14.422;2023-03-19T11:59:28;18.47;;;10.50;;
1358;SDS011;673;48.098;14.422;2023-03-19T12:05:22;14.67;;;11.57;;
1358;SDS011;673;48.098;14.422;2023-03-19T12:07:56;13.60;;;12.20;;
1358;SDS011;673;48.098;14.422;2023-03-19T12:10:43;9.73;;;8.80;;
1358;SDS011;673;48.098;14.422;2023-03-19T12:13:24;10.87;;;9.80;;
1358;SDS011;673;48.098;14.422;2023-03-19T12:16:01;12.07;;;10.87;;
1358;SDS011;673;48.098;14.422;2023-03-19T12:18:46;9.87;;;9.00;;
1358;SDS011;673;48.098;14.422;2023-03-19T12:21:25;14.67;;;9.90;;
1358;SDS011;673;48.098;14.422;2023-03-19T12:24:01;15.13;;;10.40;;
1358;SDS011;673;48.098;14.422;2023-03-19T12:26:32;10.33;;;9.33;;
1358;SDS011;673;48.098;14.422;2023-03-19T12:29:12;10.90;;;9.80;;
1358;SDS011;673;48.098;14.422;2023-03-19T12:31:50;11.00;;;9.60;;
1358;SDS011;673;48.098;14.422;2023-03-19T12:34:27;11.90;;;10.10;;
1358;SDS011;673;48.098;14.422;2023-03-19T12:37:02;12.87;;;10.30;;
1358;SDS011;673;48.098;14.422;2023-03-19T12:39:38;11.20;;;10.10;;
1358;SDS011;673;48.098;14.422;2023-03-19T12:42:11;10.50;;;9.60;;
1358;SDS011;673;48.098;14.422;2023-03-19T12:44:43;11.37;;;9.73;;
1358;SDS011;673;48.098;14.422;2023-03-19T12:47:17;11.47;;;10.20;;
1358;SDS011;673;48.098;14.422;2023-03-19T12:49:48;10.47;;;9.57;;
1358;SDS011;673;48.098;14.422;2023-03-19T12:52:20;12.10;;;10.90;;
1358;SDS011;673;48.098;14.422;2023-03-19T12:54:52;10.10;;;9.13;;
1358;SDS011;673;48.098;14.422;2023-03-19T12:57:26;14.03;;;9.87;;
1358;SDS011;673;48.098;14.422;2023-03-19T13:00:02;11.00;;;9.63;;
1358;SDS011;673;48.098;14.422;2023-03-19T13:02:32;10.70;;;9.60;;
1358;SDS011;673;48.098;14.422;2023-03-19T13:05:06;10.50;;;9.50;;
1358;SDS011;673;48.098;14.422;2023-03-19T13:07:48;10.63;;;9.73;;
1358;SDS011;673;48.098;14.422;2023-03-19T13:10:21;11.57;;;10.60;;
1358;SDS011;673;48.098;14.422;2023-03-19T13:12:48;12.47;;;11.27;;
1358;SDS011;673;48.098;14.422;2023-03-19T13:15:20;10.10;;;9.10;;
1358;SDS011;673;48.098;14.422;2023-03-19T13:17:55;10.63;;;9.63;;
1358;SDS011;673;48.098;14.422;2023-03-19T13:20:30;12.37;;;11.17;;
1358;SDS011;673;48.098;14.422;2023-03-19T13:23:12;11.10;;;10.00;;
1358;SDS011;673;48.098;14.422;2023-03-19T13:25:43;11.27;;;10.17;;
1358;SDS011;673;48.098;14.422;2023-03-19T13:28:17;10.50;;;9.60;;
1358;SDS011;673;48.098;14.422;2023-03-19T13:31:01;12.40;;;10.90;;
1358;SDS011;673;48.098;14.422;2023-03-19T13:33:30;10.60;;;9.50;;
1358;SDS011;673;48.098;14.422;2023-03-19T13:36:00;11.80;;;10.43;;
1358;SDS011;673;48.098;14.422;2023-03-19T13:38:32;10.67;;;9.67;;
1358;SDS011;673;48.098;14.422;2023-03-19T13:41:04;10.87;;;9.77;;
1358;SDS011;673;48.098;14.422;2023-03-19T13:43:52;11.80;;;10.70;;
1358;SDS011;673;48.098;14.422;2023-03-19T13:49:28;12.60;;;11.30;;
1358;SDS011;673;48.098;14.422;2023-03-19T13:51:58;16.83;;;12.03;;
1358;SDS011;673;48.098;14.422;2023-03-19T13:54:33;13.60;;;10.97;;
1358;SDS011;673;48.098;14.422;2023-03-19T13:59:47;11.50;;;9.77;;
1358;SDS011;673;48.098;14.422;2023-03-19T14:05:18;19.60;;;14.60;;
1358;SDS011;673;48.098;14.422;2023-03-19T14:07:53;12.17;;;10.97;;
1358;SDS011;673;48.098;14.422;2023-03-19T14:10:24;11.53;;;10.53;;
1358;SDS011;673;48.098;14.422;2023-03-19T14:13:01;13.07;;;11.83;;
1358;SDS011;673;48.098;14.422;2023-03-19T14:15:31;12.53;;;11.50;;
1358;SDS011;673;48.098;14.422;2023-03-19T14:18:00;12.93;;;11.73;;
1358;SDS011;673;48.098;14.422;2023-03-19T14:20:31;11.47;;;10.37;;
1358;SDS011;673;48.098;14.422;2023-03-19T14:23:10;13.87;;;12.23;;
1358;SDS011;673;48.098;14.422;2023-03-19T14:25:54;13.20;;;11.93;;
1358;SDS011;673;48.098;14.422;2023-03-19T14:28:26;12.47;;;11.27;;
1358;SDS011;673;48.098;14.422;2023-03-19T14:31:00;10.93;;;9.93;;
1358;SDS011;673;48.098;14.422;2023-03-19T14:33:31;15.70;;;12.80;;
1358;SDS011;673;48.098;14.422;2023-03-19T14:36:07;12.93;;;11.70;;
1358;SDS011;673;48.098;14.422;2023-03-19T14:38:39;14.20;;;12.80;;
1358;SDS011;673;48.098;14.422;2023-03-19T14:41:14;14.50;;;13.00;;
1358;SDS011;673;48.098;14.422;2023-03-19T14:43:50;14.30;;;13.00;;
1358;SDS011;673;48.098;14.422;2023-03-19T14:46:41;15.67;;;12.67;;
1358;SDS011;673;48.098;14.422;2023-03-19T14:52:22;16.67;;;12.00;;
1358;SDS011;673;48.098;14.422;2023-03-19T14:54:52;18.63;;;14.07;;
1358;SDS011;673;48.098;14.422;2023-03-19T14:57:24;13.30;;;12.00;;
1358;SDS011;673;48.098;14.422;2023-03-19T14:59:53;14.40;;;12.90;;
1358;SDS011;673;48.098;14.422;2023-03-19T15:02:26;14.40;;;12.67;;
1358;SDS011;673;48.098;14.422;2023-03-19T15:05:00;16.50;;;13.67;;
1358;SDS011;673;48.098;14.422;2023-03-19T15:07:32;13.23;;;11.93;;
1358;SDS011;673;48.098;14.422;2023-03-19T15:10:03;14.93;;;12.03;;
1358;SDS011;673;48.098;14.422;2023-03-19T15:15:38;16.20;;;14.27;;
1358;SDS011;673;48.098;14.422;2023-03-19T15:18:10;15.10;;;13.57;;
1358;SDS011;673;48.098;14.422;2023-03-19T15:20:41;15.27;;;13.67;;
1358;SDS011;673;48.098;14.422;2023-03-19T15:23:10;14.33;;;12.83;;
1358;SDS011;673;48.098;14.422;2023-03-19T15:25:45;15.53;;;13.90;;
1358;SDS011;673;48.098;14.422;2023-03-19T15:28:13;21.03;;;18.47;;
1358;SDS011;673;48.098;14.422;2023-03-19T15:30:41;16.27;;;13.30;;
1358;SDS011;673;48.098;14.422;2023-03-19T15:33:18;19.77;;;16.40;;
1358;SDS011;673;48.098;14.422;2023-03-19T15:35:52;13.20;;;11.83;;